createdAt,value
2018-04-28T00:04:38.349Z,7.30
2018-04-28T00:10:07.244Z,8.67
2018-04-28T00:15:35.414Z,5.73
2018-04-28T00:21:03.572Z,10.00
2018-04-28T00:26:31.729Z,7.83
2018-04-28T00:32:02.109Z,7.97
2018-04-28T00:37:50.803Z,8.63
2018-04-28T00:43:20.543Z,14.70
2018-04-28T00:49:08.679Z,10.70
2018-04-28T00:54:49.432Z,7.50
2018-04-28T01:00:26.044Z,9.67
2018-04-28T01:05:55.115Z,8.90
2018-04-28T01:11:28.565Z,8.87
2018-04-28T01:16:56.710Z,7.50
2018-04-28T01:22:36.437Z,10.70
2018-04-28T01:28:04.588Z,12.70
2018-04-28T01:39:40.099Z,6.30
2018-04-28T01:51:51.622Z,6.60
2018-04-28T01:57:26.087Z,7.27
2018-04-28T02:03:11.914Z,6.60
2018-04-28T02:08:40.057Z,13.27
2018-04-28T02:14:19.142Z,8.17
2018-04-28T02:19:49.219Z,7.23
2018-04-28T02:25:28.849Z,9.83
2018-04-28T02:37:27.592Z,8.43
2018-04-28T02:42:59.066Z,9.93
2018-04-28T02:55:00.450Z,8.67
2018-04-28T03:00:30.996Z,7.33
2018-04-28T03:06:10.512Z,10.20
2018-04-28T03:11:45.306Z,10.40
2018-04-28T03:17:33.036Z,8.53
2018-04-28T03:23:01.199Z,8.83
2018-04-28T03:28:39.251Z,7.47
2018-04-28T03:40:39.662Z,8.10
2018-04-28T03:52:21.876Z,6.27
2018-04-28T03:58:08.611Z,12.73
2018-04-28T04:03:55.434Z,8.57
2018-04-28T04:09:45.155Z,7.67
2018-04-28T04:21:57.399Z,7.77
2018-04-28T04:34:04.572Z,11.23
2018-04-28T04:39:38.047Z,12.60
2018-04-28T04:45:14.498Z,9.33
2018-04-28T04:50:53.119Z,8.30
2018-04-28T05:02:33.411Z,8.07
2018-04-28T05:08:13.920Z,7.80
2018-04-28T05:13:53.805Z,6.90
2018-04-28T05:19:37.591Z,7.40
2018-04-28T05:25:34.358Z,4.80
2018-04-28T05:43:40.923Z,9.10
2018-04-28T05:49:20.925Z,3.80
2018-04-28T05:55:06.983Z,6.83
2018-04-28T06:00:50.887Z,4.40
2018-04-28T06:06:41.606Z,8.47
2018-04-28T06:12:20.219Z,13.00
2018-04-28T06:24:16.051Z,6.00
2018-04-28T06:29:44.472Z,4.13
2018-04-28T06:35:12.804Z,3.40
2018-04-28T06:40:40.950Z,6.50
2018-04-28T06:46:09.269Z,5.73
2018-04-28T06:51:37.403Z,4.60
2018-04-28T06:57:07.284Z,6.57
2018-04-28T07:02:35.419Z,5.97
2018-04-28T07:08:04.532Z,6.47
2018-04-28T07:13:33.452Z,4.80
2018-04-28T07:19:02.365Z,8.80
2018-04-28T07:24:30.509Z,5.57
2018-04-28T07:29:59.789Z,6.13
2018-04-28T07:35:27.941Z,6.07
2018-04-28T07:40:56.301Z,4.93
2018-04-28T07:46:26.146Z,9.83
2018-04-28T07:51:54.468Z,8.43
2018-04-28T07:57:22.657Z,6.37
2018-04-28T08:02:51.792Z,6.47
2018-04-28T08:08:19.975Z,4.43
2018-04-28T08:13:51.045Z,4.57
2018-04-28T08:19:19.202Z,6.77
2018-04-28T08:24:47.368Z,3.97
2018-04-28T08:30:15.615Z,4.77
2018-04-28T08:35:44.526Z,4.10
2018-04-28T08:41:12.729Z,6.73
2018-04-28T08:46:41.608Z,4.50
2018-04-28T08:52:09.739Z,6.70
2018-04-28T08:57:41.736Z,5.63
2018-04-28T09:03:09.922Z,4.80
2018-04-28T09:08:38.068Z,4.37
2018-04-28T09:14:08.162Z,2.83
2018-04-28T09:19:37.117Z,3.77
2018-04-28T09:25:05.234Z,5.20
2018-04-28T09:30:33.394Z,13.90
2018-04-28T09:36:01.552Z,8.13
2018-04-28T09:41:30.486Z,10.50
2018-04-28T09:46:59.396Z,8.33
2018-04-28T09:52:28.602Z,5.90
2018-04-28T09:58:06.543Z,2.70
2018-04-28T10:03:34.702Z,9.23
2018-04-28T10:09:02.865Z,7.53
2018-04-28T10:14:31.785Z,7.07
2018-04-28T10:19:59.915Z,5.03
2018-04-28T10:25:29.839Z,3.70
2018-04-28T10:30:58.094Z,4.67
2018-04-28T10:36:26.249Z,6.23
2018-04-28T10:41:54.402Z,7.20
2018-04-28T10:47:22.608Z,10.17
2018-04-28T10:52:50.751Z,8.77
2018-04-28T10:58:18.885Z,7.23
2018-04-28T11:03:47.011Z,5.60
2018-04-28T11:09:15.958Z,6.70
2018-04-28T11:14:44.864Z,4.30
2018-04-28T11:20:13.008Z,10.10
2018-04-28T11:25:41.957Z,6.87
2018-04-28T11:31:10.060Z,6.23
2018-04-28T11:36:38.205Z,5.60
2018-04-28T11:42:06.344Z,6.70
2018-04-28T11:47:47.449Z,4.83
2018-04-28T11:53:15.593Z,5.37
2018-04-28T11:58:43.739Z,5.33
2018-04-28T12:04:12.803Z,11.90
2018-04-28T12:09:41.730Z,7.90
2018-04-28T12:15:10.524Z,8.30
2018-04-28T12:20:38.727Z,6.03
2018-04-28T12:26:06.874Z,6.93
2018-04-28T12:31:35.069Z,6.30
2018-04-28T12:37:03.245Z,7.20
2018-04-28T12:42:31.424Z,6.93
2018-04-28T12:47:59.601Z,8.23
2018-04-28T12:53:28.542Z,8.33
2018-04-28T12:58:57.463Z,6.90
2018-04-28T13:04:26.396Z,7.00
2018-04-28T13:09:55.562Z,6.57
2018-04-28T13:15:24.480Z,8.73
2018-04-28T13:20:54.564Z,3.20
2018-04-28T13:26:23.456Z,4.40
2018-04-28T13:31:51.591Z,5.43
2018-04-28T13:37:19.740Z,6.20
2018-04-28T13:42:48.637Z,7.13
2018-04-28T13:48:16.812Z,7.90
2018-04-28T13:53:44.896Z,8.23
2018-04-28T13:59:13.031Z,4.60
2018-04-28T14:04:41.948Z,7.97
2018-04-28T14:10:10.475Z,9.63
2018-04-28T14:15:38.623Z,4.40
2018-04-28T14:21:07.516Z,11.67
2018-04-28T14:26:35.652Z,5.90
2018-04-28T14:32:05.652Z,5.03
2018-04-28T14:37:34.463Z,6.27
2018-04-28T14:43:02.596Z,4.00
2018-04-28T14:48:31.509Z,6.50
2018-04-28T14:53:59.663Z,7.73
2018-04-28T14:59:28.785Z,6.50
2018-04-28T15:04:57.753Z,9.43
2018-04-28T15:10:25.891Z,6.90
2018-04-28T15:15:56.013Z,5.90
2018-04-28T15:21:24.944Z,5.50
2018-04-28T15:26:53.091Z,5.57
2018-04-28T15:32:21.233Z,10.07
2018-04-28T15:37:49.394Z,4.10
2018-04-28T15:43:19.499Z,8.20
2018-04-28T15:48:47.673Z,5.77
2018-04-28T15:54:15.833Z,5.17
2018-04-28T15:59:43.993Z,8.43
2018-04-28T16:05:12.243Z,8.00
2018-04-28T16:10:40.476Z,8.50
2018-04-28T16:16:08.625Z,9.17
2018-04-28T16:21:36.796Z,5.23
2018-04-28T16:27:04.938Z,9.27
2018-04-28T16:32:33.906Z,6.90
2018-04-28T16:38:02.060Z,4.90
2018-04-28T16:43:30.256Z,7.40
2018-04-28T16:48:58.412Z,11.07
2018-04-28T16:54:26.588Z,10.30
2018-04-28T16:59:55.742Z,9.03
2018-04-28T17:05:23.917Z,6.97
2018-04-28T17:10:52.844Z,5.93
2018-04-28T17:16:20.968Z,7.80
2018-04-28T17:21:49.108Z,16.87
2018-04-28T17:27:18.012Z,8.57
2018-04-28T17:32:46.159Z,9.47
2018-04-28T17:38:15.056Z,6.43
2018-04-28T17:43:48.441Z,9.73
2018-04-28T17:49:17.415Z,5.33
2018-04-28T17:54:45.549Z,9.00
2018-04-28T18:00:13.699Z,8.30
2018-04-28T18:05:42.610Z,7.00
2018-04-28T18:11:10.976Z,7.03
2018-04-28T18:16:47.390Z,7.80
2018-04-28T18:22:16.282Z,10.30
2018-04-28T18:27:45.430Z,9.10
2018-04-28T18:33:13.625Z,8.87
2018-04-28T18:38:42.292Z,9.47
2018-04-28T18:44:11.554Z,10.73
2018-04-28T18:49:39.883Z,8.80
2018-04-28T18:55:09.059Z,11.23
2018-04-28T19:00:37.235Z,18.93
2018-04-28T19:06:05.407Z,12.13
2018-04-28T19:11:33.581Z,18.63
2018-04-28T19:17:02.547Z,14.97
2018-04-28T19:22:30.717Z,10.17
2018-04-28T19:27:58.864Z,9.43
2018-04-28T19:33:27.769Z,11.13
2018-04-28T19:38:56.090Z,12.03
2018-04-28T19:44:24.248Z,8.47
2018-04-28T19:49:53.233Z,8.77
2018-04-28T19:55:22.477Z,11.77
2018-04-28T20:00:50.646Z,8.40
2018-04-28T20:06:19.800Z,13.77
2018-04-28T20:11:56.856Z,9.03
2018-04-28T20:17:25.247Z,23.10
2018-04-28T20:23:11.460Z,14.67
2018-04-28T20:28:39.856Z,15.17
2018-04-28T20:34:11.947Z,11.47
2018-04-28T20:39:40.075Z,10.37
2018-04-28T20:45:10.208Z,8.83
2018-04-28T20:50:40.090Z,10.23
2018-04-28T20:56:13.714Z,15.47
2018-04-28T21:01:41.865Z,11.80
2018-04-28T21:07:10.008Z,11.93
2018-04-28T21:12:39.101Z,11.07
2018-04-28T21:18:07.257Z,14.43
2018-04-28T21:23:35.421Z,16.53
2018-04-28T21:29:03.598Z,16.20
2018-04-28T21:34:33.824Z,16.00
2018-04-28T21:40:01.973Z,11.20
2018-04-28T21:45:30.101Z,15.90
2018-04-28T21:50:58.266Z,15.87
2018-04-28T21:56:26.418Z,10.13
2018-04-28T22:01:54.557Z,14.60
2018-04-28T22:07:22.696Z,31.90
2018-04-28T22:12:50.856Z,24.70
2018-04-28T22:18:22.469Z,30.60
2018-04-28T22:23:51.383Z,21.10
2018-04-28T22:29:19.538Z,26.60
2018-04-28T22:34:48.464Z,19.47
2018-04-28T22:40:18.324Z,19.13
2018-04-28T22:45:47.227Z,16.80
2018-04-28T22:51:15.367Z,25.03
2018-04-28T22:56:43.495Z,18.33
2018-04-28T23:02:12.410Z,18.97
2018-04-28T23:07:40.561Z,15.03
2018-04-28T23:13:09.473Z,18.77
2018-04-28T23:18:37.613Z,19.47
2018-04-28T23:24:05.760Z,14.63
2018-04-28T23:29:33.923Z,15.20
2018-04-28T23:35:02.095Z,16.40
2018-04-28T23:40:30.235Z,17.70
2018-04-28T23:45:58.394Z,19.93
2018-04-28T23:51:27.561Z,18.60
2018-04-28T23:56:56.502Z,14.97
